createdAt,value
2019-05-30T00:00:50.715Z,100.0
2019-05-30T00:02:50.752Z,100.0
2019-05-30T00:04:50.260Z,100.0
2019-05-30T00:06:50.666Z,100.0
2019-05-30T00:08:50.747Z,100.0
2019-05-30T00:10:49.771Z,100.0
2019-05-30T00:12:49.822Z,100.0
2019-05-30T00:14:49.867Z,100.0
2019-05-30T00:16:50.117Z,100.0
2019-05-30T00:18:50.233Z,100.0
2019-05-30T00:20:50.391Z,100.0
2019-05-30T00:22:50.512Z,100.0
2019-05-30T00:24:50.684Z,100.0
2019-05-30T00:26:49.929Z,100.0
2019-05-30T00:28:50.081Z,100.0
2019-05-30T00:30:50.104Z,100.0
2019-05-30T00:32:50.082Z,100.0
2019-05-30T00:34:50.683Z,100.0
2019-05-30T00:36:49.832Z,100.0
2019-05-30T00:38:49.939Z,100.0
2019-05-30T00:40:50.123Z,100.0
2019-05-30T00:42:50.202Z,100.0
2019-05-30T00:44:50.313Z,100.0
2019-05-30T00:46:50.679Z,100.0
2019-05-30T00:48:50.860Z,100.0
2019-05-30T00:50:49.955Z,100.0
2019-05-30T00:52:50.078Z,100.0
2019-05-30T00:54:50.370Z,100.0
2019-05-30T00:56:50.605Z,100.0
2019-05-30T00:58:50.659Z,100.0
2019-05-30T01:00:50.811Z,100.0
2019-05-30T01:02:50.039Z,100.0
2019-05-30T01:04:50.581Z,100.0
2019-05-30T01:06:50.697Z,100.0
2019-05-30T01:08:49.825Z,100.0
2019-05-30T01:10:49.915Z,100.0
2019-05-30T01:12:50.041Z,100.0
2019-05-30T01:14:50.187Z,100.0
2019-05-30T01:16:50.390Z,100.0
2019-05-30T01:18:50.555Z,100.0
2019-05-30T01:20:50.757Z,100.0
2019-05-30T01:22:49.985Z,100.0
2019-05-30T01:24:50.272Z,100.0
2019-05-30T01:26:50.705Z,100.0
2019-05-30T01:28:49.858Z,100.0
2019-05-30T01:31:11.870Z,100.0
2019-05-30T01:32:50.676Z,100.0
2019-05-30T01:34:50.355Z,100.0
2019-05-30T01:36:50.564Z,100.0
2019-05-30T01:38:50.827Z,100.0
2019-05-30T01:40:49.930Z,100.0
2019-05-30T01:42:50.136Z,100.0
2019-05-30T01:44:50.213Z,100.0
2019-05-30T01:46:50.469Z,100.0
2019-05-30T01:48:50.564Z,100.0
2019-05-30T01:50:50.540Z,100.0
2019-05-30T01:52:50.637Z,100.0
2019-05-30T01:54:50.644Z,100.0
2019-05-30T01:56:49.815Z,100.0
2019-05-30T01:58:49.842Z,100.0
2019-05-30T02:00:49.785Z,100.0
2019-05-30T02:02:49.923Z,100.0
2019-05-30T02:04:50.442Z,100.0
2019-05-30T02:06:50.666Z,100.0
2019-05-30T02:08:50.494Z,100.0
2019-05-30T02:10:50.609Z,100.0
2019-05-30T02:12:50.784Z,100.0
2019-05-30T02:14:49.870Z,100.0
2019-05-30T02:16:50.205Z,100.0
2019-05-30T02:18:50.426Z,100.0
2019-05-30T02:20:50.660Z,100.0
2019-05-30T02:22:50.650Z,100.0
2019-05-30T02:24:50.763Z,100.0
2019-05-30T02:26:50.018Z,100.0
2019-05-30T02:28:50.159Z,100.0
2019-05-30T02:30:50.315Z,100.0
2019-05-30T02:32:50.387Z,100.0
2019-05-30T02:34:50.104Z,100.0
2019-05-30T02:36:50.375Z,100.0
2019-05-30T02:38:50.500Z,100.0
2019-05-30T02:40:50.688Z,100.0
2019-05-30T02:42:50.770Z,100.0
2019-05-30T02:44:49.770Z,100.0
2019-05-30T02:46:50.076Z,100.0
2019-05-30T02:49:08.686Z,100.0
2019-05-30T02:50:49.833Z,100.0
2019-05-30T02:52:49.959Z,100.0
2019-05-30T02:54:50.118Z,100.0
2019-05-30T02:56:50.369Z,100.0
2019-05-30T02:58:50.427Z,100.0
2019-05-30T03:00:50.510Z,100.0
2019-05-30T03:02:50.558Z,100.0
2019-05-30T03:04:50.160Z,100.0
2019-05-30T03:06:50.424Z,100.0
2019-05-30T03:08:50.528Z,100.0
2019-05-30T03:10:50.637Z,100.0
2019-05-30T03:12:50.692Z,100.0
2019-05-30T03:14:49.908Z,100.0
2019-05-30T03:16:50.169Z,100.0
2019-05-30T03:18:50.325Z,100.0
2019-05-30T03:20:50.472Z,100.0
2019-05-30T03:22:50.528Z,100.0
2019-05-30T03:24:50.685Z,100.0
2019-05-30T03:26:49.844Z,100.0
2019-05-30T03:28:54.039Z,100.0
2019-05-30T03:30:50.355Z,100.0
2019-05-30T03:33:38.654Z,100.0
2019-05-30T03:34:50.655Z,100.0
2019-05-30T03:36:49.929Z,100.0
2019-05-30T03:38:50.070Z,100.0
2019-05-30T03:40:50.185Z,100.0
2019-05-30T03:42:50.265Z,100.0
2019-05-30T03:44:50.461Z,100.0
2019-05-30T03:46:50.678Z,100.0
2019-05-30T03:48:50.742Z,100.0
2019-05-30T03:50:49.863Z,100.0
2019-05-30T03:52:49.977Z,100.0
2019-05-30T03:54:50.171Z,100.0
2019-05-30T03:56:50.493Z,100.0
2019-05-30T03:58:50.625Z,100.0
2019-05-30T04:00:52.166Z,100.0
2019-05-30T04:02:59.879Z,100.0
2019-05-30T04:04:50.593Z,100.0
2019-05-30T04:06:50.661Z,100.0
2019-05-30T04:08:50.753Z,100.0
2019-05-30T04:10:49.959Z,100.0
2019-05-30T04:12:50.328Z,100.0
2019-05-30T04:14:50.485Z,100.0
2019-05-30T04:16:50.614Z,100.0
2019-05-30T04:18:50.739Z,100.0
2019-05-30T04:20:49.947Z,100.0
2019-05-30T04:22:50.030Z,100.0
2019-05-30T04:24:50.201Z,100.0
2019-05-30T04:26:50.669Z,100.0
2019-05-30T04:28:50.824Z,100.0
2019-05-30T04:30:49.903Z,100.0
2019-05-30T04:32:50.049Z,100.0
2019-05-30T04:34:50.532Z,100.0
2019-05-30T04:36:54.319Z,100.0
2019-05-30T04:38:50.414Z,100.0
2019-05-30T04:40:50.477Z,100.0
2019-05-30T04:42:50.599Z,100.0
2019-05-30T04:44:49.873Z,100.0
2019-05-30T04:46:50.211Z,100.0
2019-05-30T04:48:50.326Z,100.0
2019-05-30T04:50:50.404Z,100.0
2019-05-30T04:52:50.484Z,100.0
2019-05-30T04:54:50.597Z,100.0
2019-05-30T04:56:49.845Z,100.0
2019-05-30T04:58:49.946Z,100.0
2019-05-30T05:00:50.100Z,100.0
2019-05-30T05:02:50.146Z,100.0
2019-05-30T05:04:50.511Z,100.0
2019-05-30T05:06:49.897Z,100.0
2019-05-30T05:08:50.014Z,100.0
2019-05-30T05:10:50.122Z,100.0
2019-05-30T05:12:50.215Z,100.0
2019-05-30T05:14:50.302Z,100.0
2019-05-30T05:16:50.514Z,100.0
2019-05-30T05:18:50.623Z,100.0
2019-05-30T05:20:50.774Z,100.0
2019-05-30T05:22:49.843Z,100.0
2019-05-30T05:24:49.885Z,98.4
2019-05-30T05:26:50.122Z,97.6
2019-05-30T05:28:50.240Z,99.0
2019-05-30T05:30:50.285Z,98.8
2019-05-30T05:32:50.490Z,97.9
2019-05-30T05:34:52.614Z,99.0
2019-05-30T05:36:50.590Z,98.7
2019-05-30T05:38:50.668Z,99.8
2019-05-30T05:40:50.113Z,98.5
2019-05-30T05:42:50.257Z,98.6
2019-05-30T05:44:50.311Z,98.4
2019-05-30T05:46:50.613Z,98.1
2019-05-30T05:48:50.613Z,96.9
2019-05-30T05:50:50.660Z,95.8
2019-05-30T05:52:50.684Z,96.4
2019-05-30T05:54:49.779Z,95.6
2019-05-30T05:56:49.935Z,94.4
2019-05-30T05:58:50.028Z,94.0
2019-05-30T06:00:50.125Z,94.0
2019-05-30T06:02:50.146Z,92.2
2019-05-30T06:04:50.608Z,92.3
2019-05-30T06:06:49.812Z,89.6
2019-05-30T06:08:49.811Z,89.3
2019-05-30T06:10:49.899Z,87.5
2019-05-30T06:12:49.991Z,87.5
2019-05-30T06:14:50.123Z,87.9
2019-05-30T06:16:50.388Z,88.2
2019-05-30T06:18:50.547Z,86.9
2019-05-30T06:20:50.575Z,86.9
2019-05-30T06:22:50.744Z,85.2
2019-05-30T06:24:49.845Z,85.6
2019-05-30T06:26:50.107Z,85.1
2019-05-30T06:28:50.173Z,84.8
2019-05-30T06:30:50.225Z,84.2
2019-05-30T06:32:50.454Z,83.6
2019-05-30T06:34:50.077Z,84.4
2019-05-30T06:36:50.313Z,82.9
2019-05-30T06:38:50.463Z,82.3
2019-05-30T06:40:50.543Z,82.7
2019-05-30T06:42:50.641Z,81.4
2019-05-30T06:44:50.689Z,81.9
2019-05-30T06:46:49.898Z,79.8
2019-05-30T06:48:49.884Z,80.1
2019-05-30T06:50:49.977Z,79.1
2019-05-30T06:52:50.080Z,79.1
2019-05-30T06:54:50.136Z,77.2
2019-05-30T06:56:50.409Z,76.1
2019-05-30T06:58:50.431Z,76.2
2019-05-30T07:00:50.489Z,75.4
2019-05-30T07:02:51.039Z,74.7
2019-05-30T07:04:55.432Z,70.8
2019-05-30T07:06:51.843Z,73.7
2019-05-30T07:08:50.133Z,72.0
2019-05-30T07:10:50.201Z,72.0
2019-05-30T07:12:50.306Z,70.8
2019-05-30T07:14:50.383Z,68.6
2019-05-30T07:16:50.471Z,68.7
2019-05-30T07:18:50.569Z,67.3
2019-05-30T07:20:50.701Z,69.6
2019-05-30T07:22:49.840Z,69.5
2019-05-30T07:24:49.959Z,70.3
2019-05-30T07:26:50.308Z,66.8
2019-05-30T07:28:50.415Z,65.8
2019-05-30T07:30:50.621Z,65.6
2019-05-30T07:32:50.671Z,65.3
2019-05-30T07:35:07.897Z,65.2
2019-05-30T07:36:50.694Z,63
2019-05-30T07:38:49.767Z,61.5
2019-05-30T07:40:49.926Z,62.0
2019-05-30T07:42:50.057Z,63
2019-05-30T07:44:50.167Z,63.0
2019-05-30T07:46:50.389Z,62
2019-05-30T07:48:50.494Z,60
2019-05-30T07:50:50.573Z,60
2019-05-30T07:52:50.603Z,60
2019-05-30T07:54:50.699Z,60
2019-05-30T07:56:49.776Z,60
2019-05-30T07:58:49.811Z,60
2019-05-30T08:00:49.837Z,60
2019-05-30T08:02:50.033Z,60
2019-05-30T08:04:50.629Z,60
2019-05-30T08:06:50.106Z,59
2019-05-30T08:08:50.133Z,59
2019-05-30T08:10:50.308Z,59
2019-05-30T08:12:50.349Z,58
2019-05-30T08:14:50.512Z,58
2019-05-30T08:16:49.770Z,58
2019-05-30T08:18:49.958Z,59
2019-05-30T08:20:49.933Z,59
2019-05-30T08:22:50.059Z,59
2019-05-30T08:24:50.140Z,58
2019-05-30T08:26:50.433Z,57
2019-05-30T08:28:50.566Z,50.5
2019-05-30T08:30:50.643Z,57
2019-05-30T08:32:50.705Z,57
2019-05-30T08:34:50.343Z,57
2019-05-30T08:36:50.519Z,57
2019-05-30T08:38:50.634Z,57
2019-05-30T08:40:50.748Z,57
2019-05-30T08:42:50.792Z,55
2019-05-30T08:44:49.961Z,54
2019-05-30T08:46:50.304Z,54
2019-05-30T08:48:50.474Z,51
2019-05-30T08:50:50.573Z,51
2019-05-30T08:52:50.727Z,52
2019-05-30T08:54:49.935Z,51
2019-05-30T08:56:50.371Z,51
2019-05-30T08:58:50.500Z,52
2019-05-30T09:00:50.590Z,52
2019-05-30T09:02:50.710Z,51
2019-05-30T09:04:50.145Z,49
2019-05-30T09:06:50.288Z,49
2019-05-30T09:08:50.363Z,51
2019-05-30T09:10:50.499Z,51
2019-05-30T09:12:50.677Z,51
2019-05-30T09:14:49.775Z,43.3
2019-05-30T09:16:52.677Z,43.0
2019-05-30T09:18:50.015Z,44.2
2019-05-30T09:20:50.174Z,50
2019-05-30T09:22:50.263Z,50
2019-05-30T09:24:50.570Z,48
2019-05-30T09:26:50.888Z,48
2019-05-30T09:28:49.928Z,47
2019-05-30T09:30:50.085Z,47
2019-05-30T09:32:50.120Z,47
2019-05-30T09:34:50.734Z,47
2019-05-30T09:36:49.887Z,47
2019-05-30T09:38:50.183Z,46
2019-05-30T09:40:50.219Z,45
2019-05-30T09:42:51.007Z,45
2019-05-30T09:44:52.542Z,45
2019-05-30T09:46:50.971Z,45
2019-05-30T09:48:52.152Z,46
2019-05-30T09:50:51.549Z,45
2019-05-30T09:52:51.798Z,45
2019-05-30T09:54:50.685Z,45
2019-05-30T09:56:57.513Z,45
2019-05-30T09:58:52.096Z,44
2019-05-30T10:00:52.593Z,44
2019-05-30T10:02:52.668Z,44
2019-05-30T10:04:50.821Z,45
2019-05-30T10:06:50.913Z,45
2019-05-30T10:08:51.519Z,44
2019-05-30T10:10:51.767Z,44
2019-05-30T10:12:50.774Z,44
2019-05-30T10:14:53.117Z,43
2019-05-30T10:16:58.338Z,43
2019-05-30T10:18:51.189Z,43
2019-05-30T10:20:54.018Z,43
2019-05-30T10:22:54.201Z,43
2019-05-30T10:24:51.703Z,40
2019-05-30T10:26:51.362Z,41
2019-05-30T10:28:51.797Z,38
2019-05-30T10:30:59.708Z,39
2019-05-30T10:32:53.949Z,39
2019-05-30T10:34:54.102Z,39
2019-05-30T10:36:52.044Z,40
2019-05-30T10:38:54.072Z,39
2019-05-30T10:40:53.941Z,40
2019-05-30T10:42:57.006Z,40
2019-05-30T10:44:54.819Z,40
2019-05-30T10:46:54.831Z,39
2019-05-30T10:48:54.881Z,39
2019-05-30T10:50:52.192Z,39
2019-05-30T10:52:51.729Z,40
2019-05-30T10:54:51.903Z,40
2019-05-30T10:56:51.704Z,40
2019-05-30T10:58:51.227Z,40
2019-05-30T11:00:57.989Z,40
2019-05-30T11:02:53.052Z,39
2019-05-30T11:04:53.328Z,39
2019-05-30T11:07:12.387Z,40
2019-05-30T11:08:51.014Z,40
2019-05-30T11:10:51.018Z,40
2019-05-30T11:13:06.370Z,40
2019-05-30T11:14:53.653Z,39
2019-05-30T11:16:53.863Z,38
2019-05-30T11:18:56.291Z,39
2019-05-30T11:20:50.463Z,39
2019-05-30T11:22:50.526Z,38
2019-05-30T11:24:50.759Z,38
2019-05-30T11:26:57.265Z,39
2019-05-30T11:28:50.881Z,39
2019-05-30T11:30:51.011Z,39
2019-05-30T11:32:51.325Z,39
2019-05-30T11:34:51.507Z,38
2019-05-30T11:36:51.159Z,38
2019-05-30T11:38:55.409Z,38
2019-05-30T11:40:51.759Z,38
2019-05-30T11:42:50.899Z,38
2019-05-30T11:44:51.588Z,38
2019-05-30T11:46:49.814Z,38
2019-05-30T11:48:49.966Z,39
2019-05-30T11:50:53.611Z,39
2019-05-30T11:52:50.218Z,39
2019-05-30T11:54:50.336Z,38
2019-05-30T11:56:50.512Z,38
2019-05-30T11:58:50.502Z,38
2019-05-30T12:00:50.676Z,38
2019-05-30T12:02:50.619Z,38
2019-05-30T12:04:50.905Z,38
2019-05-30T12:06:54.746Z,38
2019-05-30T12:08:51.032Z,39
2019-05-30T12:10:52.958Z,39
2019-05-30T12:12:51.586Z,38
2019-05-30T12:14:51.643Z,38
2019-05-30T12:16:51.509Z,38
2019-05-30T12:18:51.826Z,37
2019-05-30T12:20:49.862Z,36
2019-05-30T12:22:50.005Z,38
2019-05-30T12:24:50.168Z,38
2019-05-30T12:26:52.014Z,37
2019-05-30T12:28:50.043Z,37
2019-05-30T12:31:06.996Z,37
2019-05-30T12:32:49.787Z,38
2019-05-30T12:34:50.480Z,38
2019-05-30T12:36:49.780Z,37
2019-05-30T12:38:49.878Z,37
2019-05-30T12:40:49.907Z,37
2019-05-30T12:42:56.174Z,38
2019-05-30T12:44:50.465Z,38
2019-05-30T12:46:50.752Z,37
2019-05-30T12:48:49.880Z,38
2019-05-30T12:50:50.008Z,38
2019-05-30T12:52:50.147Z,37
2019-05-30T12:54:50.217Z,37
2019-05-30T12:56:50.414Z,37
2019-05-30T12:58:50.507Z,37
2019-05-30T13:00:50.607Z,37
2019-05-30T13:02:50.717Z,36
2019-05-30T13:04:50.221Z,37
2019-05-30T13:06:59.449Z,37
2019-05-30T13:08:50.559Z,37
2019-05-30T13:10:50.709Z,37
2019-05-30T13:12:49.848Z,37
2019-05-30T13:14:50.027Z,37
2019-05-30T13:16:50.321Z,37
2019-05-30T13:18:50.492Z,37
2019-05-30T13:20:50.637Z,38
2019-05-30T13:22:50.696Z,37
2019-05-30T13:24:49.833Z,37
2019-05-30T13:26:50.079Z,38
2019-05-30T13:28:50.122Z,37
2019-05-30T13:30:50.264Z,37
2019-05-30T13:32:50.474Z,37
2019-05-30T13:34:50.021Z,36
2019-05-30T13:36:50.302Z,37
2019-05-30T13:38:50.349Z,37
2019-05-30T13:40:50.457Z,38
2019-05-30T13:42:50.615Z,38
2019-05-30T13:44:50.668Z,37
2019-05-30T13:46:50.045Z,37
2019-05-30T13:48:50.178Z,37
2019-05-30T13:50:50.344Z,37
2019-05-30T13:52:50.530Z,37
2019-05-30T13:54:50.593Z,36
2019-05-30T13:56:50.804Z,36
2019-05-30T13:58:49.838Z,36
2019-05-30T14:00:50.026Z,36
2019-05-30T14:02:50.082Z,36
2019-05-30T14:04:50.562Z,36
2019-05-30T14:06:50.788Z,36
2019-05-30T14:08:51.194Z,36
2019-05-30T14:10:50.334Z,36
2019-05-30T14:12:50.379Z,36
2019-05-30T14:14:50.536Z,35
2019-05-30T14:16:50.692Z,35
2019-05-30T14:18:49.840Z,35
2019-05-30T14:20:49.892Z,34
2019-05-30T14:22:50.221Z,34
2019-05-30T14:24:50.289Z,35
2019-05-30T14:26:50.455Z,35
2019-05-30T14:28:50.554Z,35
2019-05-30T14:30:50.612Z,35
2019-05-30T14:32:50.006Z,35
2019-05-30T14:34:50.360Z,35
2019-05-30T14:36:50.526Z,35
2019-05-30T14:38:59.466Z,35
2019-05-30T14:40:50.552Z,36
2019-05-30T14:42:49.794Z,36
2019-05-30T14:44:51.202Z,35
2019-05-30T14:46:50.378Z,35
2019-05-30T14:48:50.461Z,35
2019-05-30T14:50:50.652Z,35
2019-05-30T14:52:50.742Z,34
2019-05-30T14:54:49.787Z,34
2019-05-30T14:56:50.111Z,35
2019-05-30T14:58:50.289Z,35
2019-05-30T15:00:50.368Z,35
2019-05-30T15:02:50.429Z,35
2019-05-30T15:04:50.133Z,35
2019-05-30T15:06:50.391Z,35
2019-05-30T15:08:50.455Z,35
2019-05-30T15:10:50.541Z,34
2019-05-30T15:12:50.598Z,35
2019-05-30T15:14:50.689Z,35
2019-05-30T15:16:49.976Z,35
2019-05-30T15:18:50.076Z,34
2019-05-30T15:20:50.190Z,34
2019-05-30T15:22:50.235Z,34
2019-05-30T15:24:50.276Z,34
2019-05-30T15:26:50.416Z,35
2019-05-30T15:28:50.502Z,35
2019-05-30T15:30:50.641Z,35
2019-05-30T15:32:50.690Z,35
2019-05-30T15:34:50.277Z,35
2019-05-30T15:36:50.554Z,36
2019-05-30T15:38:50.636Z,35
2019-05-30T15:40:49.899Z,36
2019-05-30T15:42:53.582Z,36
2019-05-30T15:44:50.699Z,36
2019-05-30T15:46:49.879Z,36
2019-05-30T15:48:49.983Z,36
2019-05-30T15:50:50.127Z,35
2019-05-30T15:52:50.224Z,35
2019-05-30T15:54:50.443Z,35
2019-05-30T15:56:50.717Z,35
2019-05-30T15:58:49.791Z,35
2019-05-30T16:00:49.886Z,36
2019-05-30T16:02:50.246Z,36
2019-05-30T16:04:49.815Z,36
2019-05-30T16:06:50.066Z,36
2019-05-30T16:08:50.178Z,36
2019-05-30T16:10:50.323Z,34
2019-05-30T16:12:50.489Z,34
2019-05-30T16:14:50.602Z,31.8
2019-05-30T16:16:49.839Z,35
2019-05-30T16:18:49.851Z,35
2019-05-30T16:20:49.988Z,36
2019-05-30T16:22:50.051Z,36
2019-05-30T16:24:50.168Z,36
2019-05-30T16:26:50.416Z,36
2019-05-30T16:28:50.500Z,35
2019-05-30T16:30:50.645Z,35
2019-05-30T16:32:50.687Z,35
2019-05-30T16:34:50.528Z,35
2019-05-30T16:36:50.610Z,35
2019-05-30T16:38:50.759Z,35
2019-05-30T16:40:50.776Z,34
2019-05-30T16:42:49.946Z,34
2019-05-30T16:44:49.971Z,34
2019-05-30T16:46:50.200Z,34
2019-05-30T16:48:50.314Z,34
2019-05-30T16:50:50.424Z,34
2019-05-30T16:52:50.538Z,34
2019-05-30T16:54:50.675Z,34
2019-05-30T16:56:49.943Z,32.5
2019-05-30T16:58:50.026Z,33.3
2019-05-30T17:00:50.171Z,34.0
2019-05-30T17:02:50.275Z,34.8
2019-05-30T17:04:49.926Z,35.9
2019-05-30T17:06:50.110Z,36.7
2019-05-30T17:08:50.172Z,37.2
2019-05-30T17:10:50.325Z,37.9
2019-05-30T17:12:50.430Z,38.3
2019-05-30T17:14:50.601Z,39.0
2019-05-30T17:16:49.972Z,39.5
2019-05-30T17:18:50.079Z,39.1
2019-05-30T17:20:50.329Z,39.3
2019-05-30T17:22:50.422Z,39.6
2019-05-30T17:24:50.501Z,40.1
2019-05-30T17:26:52.483Z,40.1
2019-05-30T17:28:50.592Z,40.3
2019-05-30T17:30:50.645Z,40.2
2019-05-30T17:32:50.670Z,40.4
2019-05-30T17:34:50.414Z,40.6
2019-05-30T17:36:50.664Z,41.0
2019-05-30T17:38:50.712Z,41.7
2019-05-30T17:40:50.188Z,42.4
2019-05-30T17:42:50.230Z,41.4
2019-05-30T17:44:50.299Z,41.2
2019-05-30T17:46:50.614Z,42.1
2019-05-30T17:48:50.708Z,42.0
2019-05-30T17:50:50.770Z,42.1
2019-05-30T17:52:49.789Z,42.2
2019-05-30T17:54:49.899Z,42.3
2019-05-30T17:56:50.217Z,42.4
2019-05-30T17:58:50.340Z,42.8
2019-05-30T18:00:50.518Z,43.0
2019-05-30T18:02:50.699Z,43.6
2019-05-30T18:04:50.359Z,43.2
2019-05-30T18:06:50.566Z,43.8
2019-05-30T18:08:50.674Z,44.0
2019-05-30T18:10:54.618Z,43.7
2019-05-30T18:12:50.704Z,43.9
2019-05-30T18:14:50.741Z,44.1
2019-05-30T18:16:49.884Z,44.7
2019-05-30T18:18:49.992Z,44.2
2019-05-30T18:20:50.028Z,44.4
2019-05-30T18:22:50.114Z,45.2
2019-05-30T18:24:50.203Z,44.8
2019-05-30T18:26:50.457Z,45.1
2019-05-30T18:28:50.538Z,44.9
2019-05-30T18:30:50.658Z,45.0
2019-05-30T18:32:49.830Z,45.5
2019-05-30T18:34:50.364Z,45.4
2019-05-30T18:36:50.685Z,46.3
2019-05-30T18:38:50.805Z,45.6
2019-05-30T18:40:49.908Z,46.1
2019-05-30T18:42:50.057Z,46.0
2019-05-30T18:44:50.132Z,46.3
2019-05-30T18:46:50.351Z,46.2
2019-05-30T18:48:50.403Z,46.1
2019-05-30T18:50:50.463Z,46.4
2019-05-30T18:52:50.604Z,46.7
2019-05-30T18:54:50.803Z,46.3
2019-05-30T18:56:49.871Z,46.3
2019-05-30T18:58:49.966Z,46.7
2019-05-30T19:00:50.029Z,46.7
2019-05-30T19:02:50.002Z,46.9
2019-05-30T19:04:50.486Z,46.9
2019-05-30T19:06:50.652Z,47.3
2019-05-30T19:08:50.725Z,47.8
2019-05-30T19:10:49.865Z,47.3
2019-05-30T19:12:50.009Z,47.6
2019-05-30T19:14:50.078Z,47.7
2019-05-30T19:16:50.352Z,48.1
2019-05-30T19:18:50.425Z,48.3
2019-05-30T19:20:50.371Z,48.2
2019-05-30T19:22:50.427Z,48.1
2019-05-30T19:24:50.506Z,48.3
2019-05-30T19:26:50.764Z,48.6
2019-05-30T19:28:49.834Z,48.6
2019-05-30T19:30:49.913Z,48.6
2019-05-30T19:32:49.932Z,48.9
2019-05-30T19:34:50.463Z,49.1
2019-05-30T19:36:50.634Z,49.3
2019-05-30T19:38:50.710Z,49.5
2019-05-30T19:40:50.885Z,49.3
2019-05-30T19:42:49.997Z,49.5
2019-05-30T19:44:50.079Z,49.6
2019-05-30T19:46:50.330Z,49.7
2019-05-30T19:48:50.453Z,49.8
2019-05-30T19:50:50.544Z,49.8
2019-05-30T19:52:50.742Z,49.8
2019-05-30T19:54:50.152Z,49.7
2019-05-30T19:56:50.361Z,49.8
2019-05-30T19:58:50.485Z,49.7
2019-05-30T20:00:59.586Z,49.7
2019-05-30T20:02:50.625Z,49.9
2019-05-30T20:04:50.204Z,50.1
2019-05-30T20:06:50.472Z,50.8
2019-05-30T20:08:56.465Z,50.5
2019-05-30T20:10:50.562Z,50.7
2019-05-30T20:12:50.657Z,51.0
2019-05-30T20:14:50.747Z,50.9
2019-05-30T20:16:49.887Z,51.2
2019-05-30T20:18:50.005Z,51.9
2019-05-30T20:20:58.558Z,51.6
2019-05-30T20:22:50.647Z,52.1
2019-05-30T20:24:50.711Z,51.5
2019-05-30T20:26:50.027Z,51.7
2019-05-30T20:28:50.036Z,52.8
2019-05-30T20:30:50.137Z,52.2
2019-05-30T20:32:50.305Z,52.2
2019-05-30T20:34:49.844Z,52.3
2019-05-30T20:36:50.135Z,52.3
2019-05-30T20:38:50.217Z,52.0
2019-05-30T20:40:50.424Z,52.2
2019-05-30T20:42:50.495Z,52.1
2019-05-30T20:44:50.519Z,52.3
2019-05-30T20:46:49.806Z,52.3
2019-05-30T20:48:49.833Z,52.2
2019-05-30T20:50:49.938Z,52.6
2019-05-30T20:52:50.007Z,52.6
2019-05-30T20:54:50.014Z,52.8
2019-05-30T20:56:52.291Z,52.7
2019-05-30T20:58:50.431Z,52.8
2019-05-30T21:00:50.509Z,53.2
2019-05-30T21:02:50.558Z,53.4
2019-05-30T21:04:50.148Z,53.9
2019-05-30T21:06:50.422Z,53.4
2019-05-30T21:08:50.624Z,53.4
2019-05-30T21:10:50.709Z,53.6
2019-05-30T21:12:50.006Z,53.6
2019-05-30T21:14:50.202Z,53.6
2019-05-30T21:16:50.434Z,53.7
2019-05-30T21:18:50.735Z,53.8
2019-05-30T21:20:49.829Z,54.1
2019-05-30T21:22:49.935Z,54.0
2019-05-30T21:24:50.056Z,53.8
2019-05-30T21:26:50.320Z,53.9
2019-05-30T21:28:50.386Z,54.5
2019-05-30T21:30:50.566Z,54.2
2019-05-30T21:32:51.575Z,54.2
2019-05-30T21:34:51.766Z,54.6
2019-05-30T21:36:50.232Z,54.8
2019-05-30T21:38:50.304Z,55.1
2019-05-30T21:40:50.434Z,55.4
2019-05-30T21:43:07.622Z,55.4
2019-05-30T21:44:53.330Z,55.7
2019-05-30T21:46:50.574Z,56.1
2019-05-30T21:48:50.623Z,56.0
2019-05-30T21:50:50.703Z,56.3
2019-05-30T21:52:50.709Z,56.4
2019-05-30T21:54:50.773Z,56.4
2019-05-30T21:56:50.732Z,56.5
2019-05-30T21:58:50.854Z,56.7
2019-05-30T22:00:51.371Z,56.7
2019-05-30T22:02:51.208Z,57.0
2019-05-30T22:04:51.137Z,57.2
2019-05-30T22:06:51.430Z,57.3
2019-05-30T22:08:51.904Z,57.5
2019-05-30T22:10:50.023Z,57.6
2019-05-30T22:12:50.158Z,57.7
2019-05-30T22:14:50.255Z,57.8
2019-05-30T22:16:52.280Z,57.9
2019-05-30T22:18:50.582Z,58.1
2019-05-30T22:20:50.643Z,58.3
2019-05-30T22:22:50.662Z,58.5
2019-05-30T22:24:50.822Z,58.5
2019-05-30T22:26:51.128Z,58.7
2019-05-30T22:28:50.919Z,58.8
2019-05-30T22:30:50.984Z,58.9
2019-05-30T22:32:51.155Z,59.1
2019-05-30T22:34:51.260Z,59.2
2019-05-30T22:36:51.375Z,59.5
2019-05-30T22:38:51.416Z,59.5
2019-05-30T22:40:50.441Z,59.5
2019-05-30T22:42:50.578Z,59.6
2019-05-30T22:44:50.672Z,59.9
2019-05-30T22:46:50.674Z,59.9
2019-05-30T22:48:50.886Z,60.1
2019-05-30T22:50:51.106Z,60.6
2019-05-30T22:52:51.261Z,60.8
2019-05-30T22:54:51.570Z,60.7
2019-05-30T22:56:51.880Z,61.1
2019-05-30T22:58:51.988Z,60.9
2019-05-30T23:00:50.405Z,61.1
2019-05-30T23:02:50.452Z,61.2
2019-05-30T23:04:50.590Z,61.3
2019-05-30T23:06:50.844Z,61.6
2019-05-30T23:08:51.005Z,62.0
2019-05-30T23:10:50.105Z,62.1
2019-05-30T23:12:50.142Z,62.2
2019-05-30T23:14:50.479Z,62.3
2019-05-30T23:16:52.386Z,62.4
2019-05-30T23:18:50.773Z,62.6
2019-05-30T23:20:50.985Z,62.8
2019-05-30T23:22:51.318Z,62.8
2019-05-30T23:24:55.702Z,63.2
2019-05-30T23:26:49.961Z,63.2
2019-05-30T23:28:50.107Z,64.0
2019-05-30T23:30:50.248Z,63.6
2019-05-30T23:32:52.212Z,63.8
2019-05-30T23:34:50.765Z,63.8
2019-05-30T23:36:50.899Z,64.0
2019-05-30T23:38:51.156Z,64.2
2019-05-30T23:40:51.437Z,64.2
2019-05-30T23:42:51.376Z,64.3
2019-05-30T23:44:51.631Z,64.4
2019-05-30T23:46:49.853Z,65.0
2019-05-30T23:48:49.988Z,66.1
2019-05-30T23:50:50.170Z,66.6
2019-05-30T23:52:50.497Z,66.9
2019-05-30T23:54:50.503Z,67.6
2019-05-30T23:56:52.458Z,69.0
2019-05-30T23:58:50.993Z,69.5
